Time;durP1;ratioP1;P1;durP2;ratioP2;P2;SDS_P1;SDS_P2;PMS_P1;PMS_P2;Temp;Humidity;BMP_temperature;BMP_pressure;BME280_temperature;BME280_humidity;BME280_pressure;Samples;Min_cycle;Max_cycle;Signal;HPM_P1;HPM_P2
2023/12/29 00:01:18;;;;;;;1.55;1.00;;;;;;;8.40;89.65;100344.84;4964968;28;20203;-65
2023/12/29 00:03:47;;;;;;;1.17;0.80;;;;;;;8.58;89.37;100337.03;4968678;28;20195;-65
2023/12/29 00:06:17;;;;;;;1.42;0.73;;;;;;;8.52;89.31;100345.94;4964357;28;20271;-65
2023/12/29 00:08:47;;;;;;;1.90;1.10;;;;;;;8.54;89.78;100338.47;4973199;28;20317;-65
2023/12/29 00:11:20;;;;;;;1.85;1.00;;;;;;;8.60;88.85;100337.66;4972170;28;20191;-66
2023/12/29 00:13:49;;;;;;;3.65;1.10;;;;;;;8.61;89.08;100336.66;4965405;28;20210;-66
2023/12/29 00:16:17;;;;;;;1.30;0.90;;;;;;;8.58;89.50;100337.03;4966439;28;20267;-65
2023/12/29 00:18:46;;;;;;;1.00;0.70;;;;;;;8.49;89.06;100324.75;4967365;28;20191;-66
2023/12/29 00:21:15;;;;;;;1.35;0.80;;;;;;;8.49;89.03;100322.91;4968871;28;20211;-65
2023/12/29 00:23:49;;;;;;;1.73;1.60;;;;;;;8.52;89.15;100321.69;4966926;28;20283;-66
2023/12/29 00:26:18;;;;;;;1.25;0.70;;;;;;;8.57;89.47;100314.63;4967265;28;20284;-65
2023/12/29 00:28:54;;;;;;;1.60;0.90;;;;;;;8.44;89.25;100316.44;4975160;28;20285;-66
2023/12/29 00:31:23;;;;;;;0.90;0.57;;;;;;;8.51;88.95;100320.00;4970616;28;20279;-63
2023/12/29 00:33:53;;;;;;;2.10;1.20;;;;;;;8.66;88.29;100310.72;4964496;28;20215;-64
2023/12/29 00:36:22;;;;;;;2.50;1.10;;;;;;;8.67;88.07;100319.63;4972040;28;20258;-64
2023/12/29 00:38:52;;;;;;;2.47;0.95;;;;;;;8.66;87.75;100312.59;4974840;28;20661;-65
2023/12/29 00:41:21;;;;;;;0.88;0.65;;;;;;;8.62;88.02;100314.00;4972909;28;20255;-65
2023/12/29 00:43:49;;;;;;;1.10;0.65;;;;;;;8.61;88.19;100309.66;4973807;28;20246;-66
2023/12/29 00:46:18;;;;;;;1.20;0.90;;;;;;;8.60;87.60;100298.06;4972796;28;20318;-65
2023/12/29 00:48:48;;;;;;;0.90;0.60;;;;;;;8.50;88.05;100296.78;4972149;28;20196;-66
2023/12/29 00:51:17;;;;;;;1.65;1.00;;;;;;;8.57;87.95;100300.31;4969648;28;20189;-67
2023/12/29 00:53:46;;;;;;;2.25;1.13;;;;;;;8.60;87.42;100292.66;4974604;28;20211;-64
2023/12/29 00:56:16;;;;;;;1.58;1.10;;;;;;;8.61;87.28;100282.69;4966674;28;20227;-66
2023/12/29 00:58:45;;;;;;;1.20;0.80;;;;;;;8.61;87.33;100288.09;4960261;28;20207;-64
2023/12/29 01:01:14;;;;;;;1.30;1.00;;;;;;;8.60;87.83;100281.88;4962025;28;20233;-64
2023/12/29 01:03:43;;;;;;;1.05;0.80;;;;;;;8.61;86.99;100282.69;4964519;28;20299;-63
2023/12/29 01:06:13;;;;;;;1.40;0.80;;;;;;;8.59;86.68;100273.97;4962854;28;20208;-64
2023/12/29 01:08:41;;;;;;;2.28;1.10;;;;;;;8.59;86.60;100271.28;4971715;28;20223;-65
2023/12/29 01:11:11;;;;;;;2.28;1.08;;;;;;;8.57;86.72;100267.94;4972788;28;20195;-64
2023/12/29 01:13:41;;;;;;;1.98;1.08;;;;;;;8.63;86.23;100275.22;4964862;28;20660;-65
2023/12/29 01:16:10;;;;;;;1.23;1.05;;;;;;;8.70;86.29;100265.28;4968773;28;20704;-64
2023/12/29 01:18:39;;;;;;;2.25;2.05;;;;;;;8.59;86.01;100264.00;4968010;28;20187;-66
2023/12/29 01:21:08;;;;;;;4.00;1.20;;;;;;;8.62;85.79;100262.75;4974746;28;20222;-66
2023/12/29 01:23:37;;;;;;;1.67;0.85;;;;;;;8.67;85.45;100257.59;4976129;28;20545;-66
2023/12/29 01:26:05;;;;;;;2.60;1.30;;;;;;;8.67;85.65;100254.88;4969833;28;20219;-64
2023/12/29 01:28:35;;;;;;;2.85;1.08;;;;;;;8.73;85.41;100249.50;4974008;28;20187;-65
2023/12/29 01:31:08;;;;;;;1.25;0.95;;;;;;;8.71;85.11;100251.56;4964768;28;20214;-66
2023/12/29 01:33:37;;;;;;;1.60;1.25;;;;;;;8.68;85.17;100251.16;4956492;28;20200;-66
2023/12/29 01:36:06;;;;;;;1.40;0.73;;;;;;;8.68;84.71;100240.38;4966662;28;20243;-65
2023/12/29 01:38:45;;;;;;;1.25;0.90;;;;;;;8.76;84.45;100250.16;4961457;28;20430;-65
2023/12/29 01:41:14;;;;;;;1.90;0.70;;;;;;;8.73;85.09;100260.31;4963381;28;20203;-65
2023/12/29 01:44:22;;;;;;;1.42;0.75;;;;;;;8.66;84.85;100248.69;4967392;28;20255;-65
2023/12/29 01:46:57;;;;;;;0.90;0.60;;;;;;;8.77;84.87;100249.94;4947370;28;20196;-64
2023/12/29 01:49:26;;;;;;;6.25;1.00;;;;;;;8.76;84.50;100242.88;4971659;28;20199;-61
2023/12/29 01:51:58;;;;;;;1.48;0.85;;;;;;;8.70;84.67;100243.72;4972736;28;20258;-65
2023/12/29 01:54:32;;;;;;;1.40;1.10;;;;;;;8.59;84.86;100236.22;4966292;28;20199;-64
2023/12/29 01:57:03;;;;;;;1.55;1.13;;;;;;;8.62;85.09;100230.41;4958566;28;20210;-65
2023/12/29 01:59:33;;;;;;;1.70;1.02;;;;;;;8.63;84.96;100223.97;4965322;28;20200;-65
2023/12/29 02:02:03;;;;;;;3.13;0.98;;;;;;;8.59;85.29;100230.81;4966834;28;20247;-65
2023/12/29 02:04:36;;;;;;;1.10;0.60;;;;;;;8.53;85.29;100223.53;4968779;28;20196;-66
2023/12/29 02:07:08;;;;;;;2.55;0.80;;;;;;;8.57;85.62;100214.00;4968768;28;20593;-68
2023/12/29 02:09:40;;;;;;;1.60;0.85;;;;;;;8.61;85.21;100223.38;4978328;28;20195;-64
2023/12/29 02:12:13;;;;;;;1.73;1.25;;;;;;;8.58;85.45;100218.38;4977359;28;20198;-66
2023/12/29 02:14:43;;;;;;;1.52;0.90;;;;;;;8.53;85.25;100215.44;4970642;28;20294;-67
2023/12/29 02:17:24;;;;;;;1.50;0.85;;;;;;;8.62;85.16;100209.66;4969578;28;20218;-67
2023/12/29 02:19:56;;;;;;;1.25;0.60;;;;;;;8.59;85.16;100206.56;4966218;28;20209;-66
2023/12/29 02:22:27;;;;;;;1.63;1.02;;;;;;;8.58;85.37;100199.50;4966595;28;20583;-65
2023/12/29 02:25:00;;;;;;;1.63;0.70;;;;;;;8.55;85.03;100197.22;4966909;28;20301;-66
2023/12/29 02:27:42;;;;;;;2.50;0.98;;;;;;;8.53;85.43;100199.28;4989483;28;20214;-63
2023/12/29 02:30:21;;;;;;;1.50;0.60;;;;;;;8.58;85.23;100189.53;4977172;28;20206;-65
2023/12/29 02:32:57;;;;;;;2.30;0.80;;;;;;;8.53;85.53;100188.50;4978744;28;20198;-65
2023/12/29 02:35:31;;;;;;;2.05;1.23;;;;;;;8.45;86.38;100184.13;4973591;28;20222;-66
2023/12/29 02:38:02;;;;;;;1.00;0.60;;;;;;;8.41;86.16;100172.09;4975201;28;20261;-66
2023/12/29 02:40:37;;;;;;;1.10;0.90;;;;;;;8.54;85.44;100179.38;4971065;28;20195;-64
2023/12/29 02:43:11;;;;;;;1.30;0.80;;;;;;;8.65;85.35;100181.47;4970781;28;20583;-66
2023/12/29 02:45:44;;;;;;;1.10;0.70;;;;;;;8.69;85.89;100185.41;4971623;28;20606;-65
2023/12/29 02:48:15;;;;;;;1.00;0.70;;;;;;;8.76;84.71;100172.75;4976271;28;20195;-66
2023/12/29 02:50:48;;;;;;;1.75;0.93;;;;;;;8.78;84.30;100181.44;4979365;28;20193;-62
2023/12/29 02:53:19;;;;;;;1.80;1.08;;;;;;;8.95;84.14;100177.31;4977621;28;20290;-65
2023/12/29 02:55:54;;;;;;;1.55;1.27;;;;;;;8.87;83.91;100157.78;4966853;28;20220;-65
2023/12/29 02:58:25;;;;;;;1.10;0.90;;;;;;;8.97;84.02;100161.72;4969569;28;20199;-65
2023/12/29 03:00:58;;;;;;;1.00;0.68;;;;;;;8.82;84.33;100161.09;4979458;28;20635;-64
2023/12/29 03:03:30;;;;;;;1.23;0.95;;;;;;;8.84;84.32;100158.22;4977964;28;20203;-64
2023/12/29 03:06:02;;;;;;;1.10;0.70;;;;;;;8.78;85.29;100154.47;4966113;28;20757;-67
2023/12/29 03:08:34;;;;;;;1.45;0.70;;;;;;;8.86;84.56;100156.94;4974762;28;20225;-65
2023/12/29 03:11:07;;;;;;;1.77;0.90;;;;;;;8.74;84.38;100155.94;4975858;28;20220;-64
2023/12/29 03:13:40;;;;;;;1.55;1.00;;;;;;;8.95;84.41;100155.72;4973529;28;20195;-65
2023/12/29 03:16:11;;;;;;;2.03;1.27;;;;;;;8.95;83.93;100154.88;4974997;28;20251;-66
2023/12/29 03:18:42;;;;;;;1.70;0.87;;;;;;;8.86;84.13;100151.56;4960011;28;20200;-65
2023/12/29 03:21:15;;;;;;;3.55;0.93;;;;;;;8.87;84.43;100144.28;4975030;28;20470;-65
2023/12/29 03:23:47;;;;;;;2.28;0.80;;;;;;;8.96;83.74;100149.25;4974600;28;20239;-65
2023/12/29 03:26:19;;;;;;;1.45;0.80;;;;;;;8.85;83.83;100149.91;4957083;28;20223;-65
2023/12/29 03:28:50;;;;;;;1.33;1.10;;;;;;;8.88;83.55;100138.69;4968306;28;20570;-65
2023/12/29 03:31:28;;;;;;;1.17;0.63;;;;;;;9.01;83.25;100138.66;4971545;28;20255;-66
2023/12/29 03:34:01;;;;;;;3.13;0.80;;;;;;;8.99;82.87;100124.56;4967375;28;20188;-65
2023/12/29 03:36:35;;;;;;;2.08;1.45;;;;;;;9.00;82.88;100137.03;4963049;28;20239;-65
2023/12/29 03:39:06;;;;;;;3.15;0.88;;;;;;;9.02;82.94;100134.94;4971065;28;20199;-65
2023/12/29 03:41:39;;;;;;;4.13;1.00;;;;;;;8.96;82.77;100133.06;4966851;28;20199;-66
2023/12/29 03:44:10;;;;;;;2.50;0.90;;;;;;;9.00;82.74;100126.25;4973249;28;20695;-66
2023/12/29 03:46:42;;;;;;;1.95;0.60;;;;;;;8.97;83.16;100115.00;4963055;28;20478;-65
2023/12/29 03:49:13;;;;;;;1.58;0.80;;;;;;;9.15;82.79;100124.09;4962351;28;20582;-65
2023/12/29 03:51:46;;;;;;;0.90;0.50;;;;;;;9.14;82.13;100117.06;4968146;28;20200;-66
2023/12/29 03:54:19;;;;;;;0.98;0.60;;;;;;;9.18;81.82;100108.53;4973430;28;20199;-65
2023/12/29 03:56:52;;;;;;;1.25;0.70;;;;;;;9.07;82.10;100110.84;4968638;28;20215;-66
2023/12/29 03:59:24;;;;;;;1.52;0.70;;;;;;;9.08;82.17;100112.50;4963890;28;20203;-64
2023/12/29 04:01:55;;;;;;;3.60;0.95;;;;;;;9.22;81.85;100112.47;4974087;28;20195;-65
2023/12/29 04:04:26;;;;;;;1.83;0.90;;;;;;;9.18;81.81;100100.44;4963581;28;20215;-66
2023/12/29 04:06:56;;;;;;;0.90;0.50;;;;;;;9.22;82.13;100099.81;4968461;28;20262;-65
2023/12/29 04:09:28;;;;;;;1.07;0.70;;;;;;;9.18;81.60;100095.03;4969528;28;20203;-66
2023/12/29 04:12:04;;;;;;;1.37;0.97;;;;;;;9.19;81.70;100081.34;4960283;28;20529;-65
2023/12/29 04:14:38;;;;;;;1.10;0.50;;;;;;;9.24;81.38;100072.59;4962766;28;20478;-66
2023/12/29 04:17:13;;;;;;;3.65;1.50;;;;;;;9.09;81.98;100079.09;4957449;28;20335;-65
2023/12/29 04:19:45;;;;;;;1.00;0.63;;;;;;;9.21;81.96;100079.25;4966470;28;20199;-65
2023/12/29 04:22:16;;;;;;;1.10;0.87;;;;;;;9.17;81.75;100067.22;4961775;28;20439;-65
2023/12/29 04:24:47;;;;;;;1.02;0.65;;;;;;;9.19;81.52;100061.63;4967952;28;20854;-65
2023/12/29 04:27:21;;;;;;;4.18;0.85;;;;;;;9.27;81.11;100061.38;4972261;28;20246;-64
2023/12/29 04:29:51;;;;;;;1.17;0.57;;;;;;;9.31;80.76;100057.19;4972348;28;20195;-65
2023/12/29 04:32:22;;;;;;;2.17;1.80;;;;;;;9.16;81.50;100047.50;4971316;28;20474;-65
2023/12/29 04:34:52;;;;;;;2.45;1.00;;;;;;;9.08;81.87;100049.59;4962146;28;20208;-67
2023/12/29 04:37:25;;;;;;;2.67;0.70;;;;;;;9.05;82.50;100058.94;4963266;28;20191;-65
2023/12/29 04:39:56;;;;;;;1.77;0.95;;;;;;;9.13;82.20;100047.94;4955398;28;20196;-66
2023/12/29 04:42:28;;;;;;;1.50;0.88;;;;;;;9.13;82.10;100050.63;4971297;28;20202;-65
2023/12/29 04:45:01;;;;;;;1.20;0.95;;;;;;;9.06;82.03;100043.59;4970527;28;20234;-65
2023/12/29 04:47:31;;;;;;;5.05;0.90;;;;;;;8.96;82.92;100054.00;4967491;28;20215;-64
2023/12/29 04:50:03;;;;;;;3.95;0.80;;;;;;;8.97;82.88;100052.94;4966825;28;20195;-64
2023/12/29 04:52:35;;;;;;;0.90;0.60;;;;;;;8.83;83.42;100035.16;4968272;28;20216;-64
2023/12/29 04:55:06;;;;;;;1.10;0.80;;;;;;;8.85;84.15;100036.59;4971143;28;20711;-65
2023/12/29 04:57:39;;;;;;;0.90;0.50;;;;;;;8.75;84.30;100028.13;4958491;28;20211;-65
2023/12/29 05:00:12;;;;;;;1.00;0.70;;;;;;;8.73;84.95;100039.13;4965790;28;20298;-66
2023/12/29 05:02:43;;;;;;;0.98;0.60;;;;;;;8.62;85.63;100037.06;4962325;28;20290;-65
2023/12/29 05:05:14;;;;;;;1.08;0.70;;;;;;;8.72;85.38;100031.22;4960930;28;20319;-65
2023/12/29 05:07:46;;;;;;;0.90;0.50;;;;;;;8.68;85.55;100041.63;4965027;28;20200;-67
2023/12/29 05:10:17;;;;;;;0.90;0.60;;;;;;;8.65;85.85;100030.44;4972632;28;20196;-64
2023/12/29 05:12:50;;;;;;;1.65;0.82;;;;;;;8.62;86.07;100036.22;4967275;28;20994;-65
2023/12/29 05:15:22;;;;;;;1.42;0.70;;;;;;;8.77;85.65;100034.13;4969572;28;20222;-65
2023/12/29 05:17:53;;;;;;;1.90;1.30;;;;;;;8.79;85.59;100032.06;4966315;28;20330;-64
2023/12/29 05:20:24;;;;;;;4.45;0.95;;;;;;;8.89;85.07;100042.41;4959635;28;20365;-65
2023/12/29 05:22:56;;;;;;;0.90;0.52;;;;;;;8.94;84.97;100035.34;4959161;28;20192;-67
2023/12/29 05:25:28;;;;;;;1.00;0.60;;;;;;;9.02;84.75;100037.78;4978895;28;20246;-65
2023/12/29 05:28:03;;;;;;;1.05;0.55;;;;;;;9.04;84.89;100024.94;4967292;28;20503;-63
2023/12/29 05:30:35;;;;;;;1.43;0.83;;;;;;;9.10;84.41;100021.34;4954717;28;20283;-65
2023/12/29 05:33:06;;;;;;;1.60;0.70;;;;;;;9.20;84.17;100023.59;4977317;28;20795;-65
2023/12/29 05:35:37;;;;;;;1.33;0.73;;;;;;;9.25;84.38;100025.66;4964340;28;20462;-65
2023/12/29 05:38:08;;;;;;;0.80;0.50;;;;;;;9.25;83.65;100022.94;4962470;28;20433;-65
2023/12/29 05:40:40;;;;;;;1.70;0.77;;;;;;;9.27;83.78;100016.31;4967830;28;20979;-64
2023/12/29 05:43:13;;;;;;;1.50;0.60;;;;;;;9.31;83.35;100016.69;4968655;28;20750;-65
2023/12/29 05:45:45;;;;;;;1.00;0.80;;;;;;;9.35;83.68;100016.06;4961056;28;20222;-64
2023/12/29 05:48:17;;;;;;;0.80;0.50;;;;;;;9.33;83.11;100017.31;4964034;28;20199;-64
2023/12/29 05:50:48;;;;;;;1.10;0.70;;;;;;;9.35;83.48;100020.63;4966553;28;20235;-66
2023/12/29 05:53:19;;;;;;;0.80;0.50;;;;;;;9.38;83.32;100037.25;4954751;28;20732;-65
2023/12/29 05:55:50;;;;;;;1.00;0.68;;;;;;;9.34;83.18;100030.63;4958993;28;20216;-64
2023/12/29 05:58:22;;;;;;;1.27;0.60;;;;;;;9.25;84.19;100022.94;4959002;28;20222;-63
2023/12/29 06:00:56;;;;;;;1.77;1.03;;;;;;;9.37;83.28;100023.94;4973123;28;21014;-64
2023/12/29 06:03:26;;;;;;;2.23;0.60;;;;;;;9.25;83.64;100014.84;4963793;28;20558;-66
2023/12/29 06:05:59;;;;;;;0.90;0.63;;;;;;;9.30;83.64;100023.13;4961231;28;20528;-64
2023/12/29 06:08:30;;;;;;;0.90;0.50;;;;;;;9.38;83.35;100020.22;4963845;28;20195;-65
2023/12/29 06:11:01;;;;;;;1.63;0.60;;;;;;;9.36;83.37;100022.28;4965873;28;20699;-65
2023/12/29 06:13:34;;;;;;;0.90;0.57;;;;;;;9.39;82.62;100000.28;4962349;28;20632;-65
2023/12/29 06:16:07;;;;;;;1.20;0.60;;;;;;;9.49;82.47;100011.41;4959593;28;20554;-65
2023/12/29 06:18:38;;;;;;;1.10;0.60;;;;;;;9.41;82.86;100017.06;4966080;28;20865;-64
2023/12/29 06:21:10;;;;;;;0.90;0.60;;;;;;;9.52;81.69;100013.69;4969318;28;20421;-65
2023/12/29 06:23:41;;;;;;;1.10;0.70;;;;;;;9.53;82.20;100018.06;4969606;28;20802;-66
2023/12/29 06:26:18;;;;;;;2.27;0.80;;;;;;;9.58;80.97;100015.53;4962575;28;20920;-66
2023/12/29 06:28:51;;;;;;;1.00;0.50;;;;;;;9.62;81.30;100021.31;4966321;28;21025;-66
2023/12/29 06:31:22;;;;;;;0.90;0.50;;;;;;;9.66;80.02;100041.44;4969455;28;20470;-64
2023/12/29 06:33:54;;;;;;;1.07;0.60;;;;;;;9.72;80.05;100052.22;4966740;28;20410;-66
2023/12/29 06:36:26;;;;;;;1.00;0.60;;;;;;;9.73;80.07;100055.75;4968517;28;20454;-65
2023/12/29 06:38:56;;;;;;;1.03;0.60;;;;;;;9.62;80.91;100054.56;4962747;28;20505;-65
2023/12/29 06:41:28;;;;;;;1.20;0.60;;;;;;;9.61;80.40;100042.09;4966062;28;20454;-67
2023/12/29 06:44:00;;;;;;;1.97;1.10;;;;;;;9.76;79.67;100045.34;4967116;28;20440;-66
2023/12/29 06:46:30;;;;;;;0.90;0.60;;;;;;;9.67;79.83;100030.44;4963985;28;20478;-66
2023/12/29 06:49:01;;;;;;;1.73;0.60;;;;;;;9.82;78.97;100039.06;4972638;28;20660;-64
2023/12/29 06:51:32;;;;;;;4.20;0.70;;;;;;;9.81;79.10;100023.91;4957827;28;20459;-65
2023/12/29 06:54:05;;;;;;;0.90;0.60;;;;;;;9.79;79.29;100033.25;4960020;28;20437;-65
2023/12/29 06:56:37;;;;;;;3.57;0.60;;;;;;;9.74;79.05;100020.41;4971693;28;20843;-65
2023/12/29 06:59:10;;;;;;;2.10;0.80;;;;;;;9.70;79.33;100016.47;4973107;28;20956;-65
2023/12/29 07:01:42;;;;;;;0.80;0.60;;;;;;;9.65;79.87;100021.69;4960507;28;20466;-64
2023/12/29 07:04:13;;;;;;;1.53;0.60;;;;;;;9.62;79.76;100030.25;4964809;28;20465;-66
2023/12/29 07:06:45;;;;;;;1.20;0.67;;;;;;;9.57;80.23;100025.50;4963909;28;20478;-65
2023/12/29 07:09:16;;;;;;;1.70;0.93;;;;;;;9.59;80.28;100027.97;4962762;28;20429;-64
2023/12/29 07:11:51;;;;;;;1.33;0.80;;;;;;;9.57;80.47;100030.91;4970941;28;20199;-64
2023/12/29 07:14:23;;;;;;;1.45;0.68;;;;;;;9.64;80.56;100041.66;4970613;28;20436;-64
2023/12/29 07:16:54;;;;;;;1.53;0.60;;;;;;;9.70;80.69;100039.97;4966315;28;20195;-67
2023/12/29 07:19:27;;;;;;;2.45;0.60;;;;;;;9.77;79.69;100036.19;4967199;28;20865;-64
2023/12/29 07:22:01;;;;;;;1.60;0.93;;;;;;;9.82;79.44;100049.03;4969683;28;20203;-64
2023/12/29 07:24:35;;;;;;;1.17;0.80;;;;;;;9.90;80.14;100036.09;4971781;28;20200;-64
2023/12/29 07:27:07;;;;;;;3.10;1.00;;;;;;;9.91;79.20;100048.56;4972103;28;20456;-65
2023/12/29 07:29:38;;;;;;;3.43;1.10;;;;;;;9.96;79.08;100056.84;4968355;28;20501;-64
2023/12/29 07:32:11;;;;;;;1.10;0.77;;;;;;;9.95;79.45;100052.47;4965434;28;20545;-63
2023/12/29 07:34:45;;;;;;;1.20;0.87;;;;;;;10.03;78.93;100054.91;4965552;28;20436;-67
2023/12/29 07:37:16;;;;;;;2.20;0.80;;;;;;;9.94;78.81;100058.09;4970683;28;20439;-66
2023/12/29 07:39:48;;;;;;;1.20;0.60;;;;;;;9.96;79.02;100056.03;4969268;28;20938;-66
2023/12/29 07:42:19;;;;;;;1.10;0.73;;;;;;;9.91;79.21;100047.72;4970758;28;20438;-66
2023/12/29 07:44:55;;;;;;;0.97;0.60;;;;;;;9.99;79.12;100053.69;4966108;28;20493;-65
2023/12/29 07:47:26;;;;;;;0.90;0.63;;;;;;;10.02;79.21;100058.66;4975126;28;20466;-65
2023/12/29 07:49:58;;;;;;;0.90;0.60;;;;;;;9.96;79.35;100062.25;4971567;28;20466;-64
2023/12/29 07:52:30;;;;;;;11.13;0.90;;;;;;;9.96;79.10;100054.16;4966986;28;20429;-64
2023/12/29 07:55:02;;;;;;;2.90;0.80;;;;;;;9.92;79.44;100058.31;4974034;28;21003;-66
2023/12/29 07:57:33;;;;;;;1.10;0.70;;;;;;;10.04;79.03;100064.69;4987804;28;20466;-64
2023/12/29 08:00:19;;;;;;;1.90;0.60;;;;;;;10.08;78.90;100064.22;4972956;28;20438;-64
2023/12/29 08:02:51;;;;;;;1.13;0.80;;;;;;;10.11;79.23;100061.13;4965037;28;20546;-64
2023/12/29 08:05:22;;;;;;;1.47;0.60;;;;;;;10.23;78.49;100060.19;4969366;28;21017;-66
2023/12/29 08:07:52;;;;;;;1.00;0.80;;;;;;;10.31;78.32;100064.53;4962484;28;20541;-65
2023/12/29 08:10:23;;;;;;;0.97;0.70;;;;;;;10.36;78.06;100073.59;4961760;28;20418;-65
2023/12/29 08:12:54;;;;;;;2.17;0.90;;;;;;;10.30;77.80;100074.50;4964956;28;20937;-65
2023/12/29 08:15:27;;;;;;;0.90;0.60;;;;;;;10.38;77.53;100076.09;4965095;28;20477;-67
2023/12/29 08:18:00;;;;;;;1.47;0.70;;;;;;;10.36;77.43;100078.22;4983276;28;20454;-64
2023/12/29 08:20:31;;;;;;;2.50;0.83;;;;;;;10.43;77.13;100078.97;4976962;28;20522;-64
2023/12/29 08:23:04;;;;;;;1.60;0.73;;;;;;;10.40;77.29;100074.84;4970850;28;20492;-65
2023/12/29 08:25:36;;;;;;;1.90;0.87;;;;;;;10.43;76.95;100073.56;4964410;28;21010;-62
2023/12/29 08:28:09;;;;;;;1.83;1.00;;;;;;;10.44;77.19;100067.94;4964095;28;20476;-63
2023/12/29 08:30:46;;;;;;;1.50;0.90;;;;;;;10.52;76.66;100061.41;4969678;28;20459;-66
2023/12/29 08:33:17;;;;;;;1.20;0.80;;;;;;;10.57;76.43;100075.09;4959793;28;20447;-65
2023/12/29 08:35:48;;;;;;;1.43;0.80;;;;;;;10.49;76.98;100072.69;4960491;28;20468;-65
2023/12/29 08:38:19;;;;;;;1.30;0.80;;;;;;;10.38;77.26;100082.34;4960801;28;20513;-65
2023/12/29 08:40:50;;;;;;;1.10;0.90;;;;;;;10.44;77.20;100077.94;4974650;28;20427;-65
2023/12/29 08:43:24;;;;;;;1.77;1.00;;;;;;;10.51;77.17;100075.97;4965677;28;20439;-65
2023/12/29 08:45:58;;;;;;;1.30;0.90;;;;;;;10.50;76.85;100079.75;4967573;28;20461;-65
2023/12/29 08:48:30;;;;;;;1.07;0.70;;;;;;;10.45;77.41;100079.59;4963930;28;20455;-66
2023/12/29 08:51:01;;;;;;;1.33;0.70;;;;;;;10.59;77.17;100075.72;4965742;28;20453;-65
2023/12/29 08:53:35;;;;;;;1.43;0.70;;;;;;;10.59;76.63;100064.91;4970646;28;20815;-65
2023/12/29 08:56:07;;;;;;;1.00;0.70;;;;;;;10.52;76.81;100066.81;4971298;28;20463;-65
2023/12/29 08:58:38;;;;;;;1.40;0.90;;;;;;;10.45;77.42;100064.19;4972170;28;20455;-65
2023/12/29 09:01:10;;;;;;;1.00;0.60;;;;;;;10.47;77.49;100072.06;4963536;28;20491;-65
2023/12/29 09:03:42;;;;;;;1.00;0.90;;;;;;;10.52;77.02;100060.59;4971827;28;20456;-65
2023/12/29 09:06:13;;;;;;;1.70;0.60;;;;;;;10.61;76.97;100080.88;4968246;28;20999;-65
2023/12/29 09:08:45;;;;;;;1.57;0.90;;;;;;;10.63;76.75;100074.22;4962294;28;20815;-65
2023/12/29 09:11:16;;;;;;;1.53;0.67;;;;;;;10.59;77.01;100081.13;4960684;28;20444;-65
2023/12/29 09:13:48;;;;;;;1.20;1.00;;;;;;;10.56;76.94;100083.44;4970783;28;20450;-66
2023/12/29 09:16:21;;;;;;;1.43;0.90;;;;;;;10.56;77.01;100073.44;4972113;28;20502;-65
2023/12/29 09:18:52;;;;;;;1.03;0.60;;;;;;;10.65;77.14;100082.13;4961180;28;20923;-67
2023/12/29 09:21:23;;;;;;;1.07;0.60;;;;;;;10.71;76.82;100071.22;4963855;28;20848;-66
2023/12/29 09:23:54;;;;;;;2.43;0.80;;;;;;;10.83;76.31;100091.09;4968843;28;20447;-67
2023/12/29 09:26:25;;;;;;;5.17;0.83;;;;;;;10.85;76.03;100088.97;4960495;28;20452;-64
2023/12/29 09:28:56;;;;;;;1.33;0.90;;;;;;;10.84;75.94;100090.03;4966854;28;20824;-65
2023/12/29 09:31:29;;;;;;;1.00;0.67;;;;;;;10.86;75.87;100079.81;4965323;28;20443;-65
2023/12/29 09:34:00;;;;;;;1.10;0.73;;;;;;;10.87;76.19;100092.31;4988191;28;20486;-66
2023/12/29 09:36:30;;;;;;;7.23;2.10;;;;;;;10.94;76.07;100088.72;4961054;28;20464;-67
2023/12/29 09:39:02;;;;;;;1.07;0.70;;;;;;;11.10;75.17;100082.69;4966246;28;20534;-67
2023/12/29 09:41:39;;;;;;;1.17;1.03;;;;;;;11.19;74.49;100095.69;4967850;28;20465;-65
2023/12/29 09:44:16;;;;;;;8.23;1.00;;;;;;;11.25;74.34;100093.97;4967135;28;20484;-66
2023/12/29 09:46:54;;;;;;;0.90;0.50;;;;;;;11.20;73.99;100091.13;4984163;28;20454;-65
2023/12/29 09:49:26;;;;;;;1.63;0.90;;;;;;;11.19;74.03;100084.03;4957761;28;20478;-67
2023/12/29 09:52:00;;;;;;;4.70;0.80;;;;;;;11.32;73.58;100092.03;4967732;28;20422;-66
2023/12/29 09:54:33;;;;;;;1.60;0.80;;;;;;;11.39;73.42;100095.47;4967914;28;20470;-66
2023/12/29 09:57:05;;;;;;;1.90;0.80;;;;;;;11.20;73.40;100081.13;4973463;28;20445;-66
2023/12/29 09:59:37;;;;;;;1.10;0.90;;;;;;;11.14;74.07;100083.88;4971058;28;20425;-67
2023/12/29 10:02:17;;;;;;;1.43;1.00;;;;;;;11.15;74.06;100074.72;4973278;28;20474;-64
2023/12/29 10:04:48;;;;;;;2.50;0.73;;;;;;;11.14;73.47;100070.34;4965047;28;20570;-64
2023/12/29 10:07:26;;;;;;;1.67;1.00;;;;;;;11.43;72.98;100079.59;4963756;28;20449;-65
2023/12/29 10:10:00;;;;;;;1.20;0.70;;;;;;;11.41;72.20;100082.56;4977156;28;20491;-66
2023/12/29 10:12:32;;;;;;;1.30;0.83;;;;;;;11.43;71.88;100080.41;4955900;28;20427;-64
2023/12/29 10:15:14;;;;;;;1.10;0.63;;;;;;;11.37;72.05;100086.78;4967893;28;20447;-66
2023/12/29 10:17:54;;;;;;;1.20;0.80;;;;;;;11.45;72.35;100072.91;4961804;28;20442;-67
2023/12/29 10:20:34;;;;;;;1.50;0.80;;;;;;;11.55;71.47;100078.63;4961553;28;20468;-67
2023/12/29 10:23:13;;;;;;;2.10;0.87;;;;;;;11.49;71.42;100078.69;4962877;28;20460;-66
2023/12/29 10:25:48;;;;;;;1.73;0.80;;;;;;;11.42;71.53;100061.72;4965316;28;20481;-64
2023/12/29 10:28:19;;;;;;;1.87;1.33;;;;;;;11.62;70.90;100068.50;4972581;28;20975;-66
2023/12/29 10:30:51;;;;;;;2.77;0.83;;;;;;;11.83;70.32;100056.38;4969349;28;20969;-66
2023/12/29 10:33:24;;;;;;;1.67;0.70;;;;;;;11.85;69.80;100053.44;4989406;28;20447;-68
2023/12/29 10:36:02;;;;;;;2.00;1.17;;;;;;;11.87;69.81;100054.00;4968398;28;21035;-65
2023/12/29 10:38:34;;;;;;;3.13;0.97;;;;;;;11.97;69.50;100046.16;4967827;28;20467;-65
2023/12/29 10:41:16;;;;;;;1.10;0.80;;;;;;;11.79;69.25;100035.38;4971865;28;20437;-66
2023/12/29 10:43:51;;;;;;;1.70;0.77;;;;;;;11.83;69.06;100050.13;4970155;28;21031;-64
2023/12/29 10:46:23;;;;;;;1.47;0.80;;;;;;;11.85;68.84;100067.00;4968919;28;20482;-65
2023/12/29 10:48:55;;;;;;;2.97;0.93;;;;;;;11.98;68.62;100075.75;4968704;28;20420;-66
2023/12/29 10:51:30;;;;;;;1.40;0.90;;;;;;;11.77;68.89;100054.56;4957866;28;20470;-66
2023/12/29 10:54:00;;;;;;;0.90;0.60;;;;;;;11.83;69.30;100053.66;4970301;28;20433;-66
2023/12/29 10:56:30;;;;;;;1.93;0.80;;;;;;;11.77;68.86;100066.25;4968572;28;20454;-66
2023/12/29 10:59:03;;;;;;;1.47;0.80;;;;;;;11.87;68.72;100078.41;4966777;28;20423;-65
2023/12/29 11:01:36;;;;;;;2.80;0.70;;;;;;;11.87;68.48;100075.69;4965851;28;20458;-67
2023/12/29 11:04:13;;;;;;;1.37;1.10;;;;;;;11.92;68.54;100073.97;4972085;28;20444;-65
2023/12/29 11:06:47;;;;;;;1.87;0.67;;;;;;;12.04;68.24;100074.00;4961873;28;20487;-68
2023/12/29 11:09:32;;;;;;;2.50;0.87;;;;;;;11.95;68.20;100073.50;4970695;28;20465;-65
2023/12/29 11:12:07;;;;;;;1.90;0.87;;;;;;;11.93;68.32;100080.22;4967304;28;20478;-65
2023/12/29 11:14:42;;;;;;;1.33;0.67;;;;;;;11.93;68.29;100080.22;4976397;28;20412;-67
2023/12/29 11:17:13;;;;;;;1.43;1.00;;;;;;;11.91;67.74;100085.06;4966571;28;20834;-66
2023/12/29 11:19:48;;;;;;;1.40;1.00;;;;;;;11.81;67.89;100073.94;4956821;28;20538;-64
2023/12/29 11:22:21;;;;;;;1.17;0.80;;;;;;;11.89;67.81;100062.75;4962906;28;20838;-67
2023/12/29 11:24:52;;;;;;;0.93;0.57;;;;;;;11.86;68.18;100053.19;4963551;28;20439;-66
2023/12/29 11:27:24;;;;;;;5.03;1.50;;;;;;;11.99;68.02;100061.16;4966843;28;20814;-66
2023/12/29 11:29:57;;;;;;;1.47;0.60;;;;;;;11.89;67.59;100066.31;4971703;28;20438;-66
2023/12/29 11:32:39;;;;;;;1.67;0.93;;;;;;;11.85;67.55;100058.84;4970484;28;20477;-67
2023/12/29 11:35:20;;;;;;;6.07;1.03;;;;;;;11.89;67.25;100057.34;4965746;28;20556;-65
2023/12/29 11:38:12;;;;;;;3.10;1.00;;;;;;;11.80;67.67;100053.31;4973466;28;20543;-67
2023/12/29 11:40:51;;;;;;;1.60;1.47;;;;;;;11.87;67.24;100051.31;4968685;28;20454;-67
2023/12/29 11:43:22;;;;;;;1.20;0.80;;;;;;;11.90;67.15;100048.16;4975048;28;20926;-64
2023/12/29 11:45:53;;;;;;;2.10;0.70;;;;;;;11.84;67.54;100041.75;4968533;28;20476;-66
2023/12/29 11:48:57;;;;;;;1.10;0.60;;;;;;;11.80;67.92;100037.03;4971542;28;20480;-64
2023/12/29 11:51:37;;;;;;;4.37;1.10;;;;;;;11.92;67.42;100022.44;4972022;28;20444;-67
2023/12/29 11:54:09;;;;;;;3.63;0.77;;;;;;;11.87;67.92;100027.72;4971889;28;20793;-65
2023/12/29 11:56:42;;;;;;;1.37;0.97;;;;;;;11.83;67.79;100028.44;4968089;28;20445;-65